sensor_id;sensor_type;location;lat;lon;timestamp;temperature;humidity
14370;DHT22;7268;50.792;0.252;2023-09-12T00:00:46;18.00;99.90
14370;DHT22;7268;50.792;0.252;2023-09-12T00:03:13;18.00;99.90
14370;DHT22;7268;50.792;0.252;2023-09-12T00:05:40;18.10;99.90
14370;DHT22;7268;50.792;0.252;2023-09-12T00:08:07;18.10;99.90
14370;DHT22;7268;50.792;0.252;2023-09-12T00:10:33;18.10;99.90
14370;DHT22;7268;50.792;0.252;2023-09-12T00:13:00;18.10;99.90
14370;DHT22;7268;50.792;0.252;2023-09-12T00:15:29;18.10;99.90
14370;DHT22;7268;50.792;0.252;2023-09-12T00:17:56;18.10;99.90
14370;DHT22;7268;50.792;0.252;2023-09-12T00:20:23;18.10;99.90
14370;DHT22;7268;50.792;0.252;2023-09-12T00:22:50;18.10;99.90
14370;DHT22;7268;50.792;0.252;2023-09-12T00:25:17;18.10;99.90
14370;DHT22;7268;50.792;0.252;2023-09-12T00:27:44;18.10;99.90
14370;DHT22;7268;50.792;0.252;2023-09-12T00:30:11;18.10;99.90
14370;DHT22;7268;50.792;0.252;2023-09-12T00:32:38;18.10;99.90
14370;DHT22;7268;50.792;0.252;2023-09-12T00:35:05;18.10;99.90
14370;DHT22;7268;50.792;0.252;2023-09-12T00:37:32;18.00;99.90
14370;DHT22;7268;50.792;0.252;2023-09-12T00:40:00;18.10;99.90
14370;DHT22;7268;50.792;0.252;2023-09-12T00:42:26;18.10;99.90
14370;DHT22;7268;50.792;0.252;2023-09-12T00:44:53;18.00;99.90
14370;DHT22;7268;50.792;0.252;2023-09-12T00:47:21;18.00;99.90
14370;DHT22;7268;50.792;0.252;2023-09-12T00:49:50;18.10;99.90
14370;DHT22;7268;50.792;0.252;2023-09-12T00:52:26;18.00;99.90
14370;DHT22;7268;50.792;0.252;2023-09-12T00:54:54;18.00;99.90
14370;DHT22;7268;50.792;0.252;2023-09-12T00:57:22;18.00;99.90
14370;DHT22;7268;50.792;0.252;2023-09-12T00:59:49;17.90;99.90
14370;DHT22;7268;50.792;0.252;2023-09-12T01:02:21;17.90;99.90
14370;DHT22;7268;50.792;0.252;2023-09-12T01:04:49;17.90;99.90
14370;DHT22;7268;50.792;0.252;2023-09-12T01:07:16;17.80;99.90
14370;DHT22;7268;50.792;0.252;2023-09-12T01:09:43;17.90;99.90
14370;DHT22;7268;50.792;0.252;2023-09-12T01:12:10;17.80;99.90
14370;DHT22;7268;50.792;0.252;2023-09-12T01:14:41;17.80;99.90
14370;DHT22;7268;50.792;0.252;2023-09-12T01:17:08;17.80;99.90
14370;DHT22;7268;50.792;0.252;2023-09-12T01:19:35;17.80;99.90
14370;DHT22;7268;50.792;0.252;2023-09-12T01:25:00;17.80;99.90
14370;DHT22;7268;50.792;0.252;2023-09-12T01:27:41;17.80;99.90
14370;DHT22;7268;50.792;0.252;2023-09-12T01:30:12;17.80;99.90
14370;DHT22;7268;50.792;0.252;2023-09-12T01:32:42;17.70;99.90
14370;DHT22;7268;50.792;0.252;2023-09-12T01:35:09;17.70;99.90
14370;DHT22;7268;50.792;0.252;2023-09-12T01:37:36;17.70;99.90
14370;DHT22;7268;50.792;0.252;2023-09-12T01:40:03;17.70;99.90
14370;DHT22;7268;50.792;0.252;2023-09-12T01:42:36;17.70;99.90
14370;DHT22;7268;50.792;0.252;2023-09-12T01:45:04;17.60;99.90
14370;DHT22;7268;50.792;0.252;2023-09-12T01:47:31;17.70;99.90
14370;DHT22;7268;50.792;0.252;2023-09-12T01:50:01;17.60;99.90
14370;DHT22;7268;50.792;0.252;2023-09-12T01:52:28;17.60;99.90
14370;DHT22;7268;50.792;0.252;2023-09-12T01:54:56;17.60;99.90
14370;DHT22;7268;50.792;0.252;2023-09-12T01:57:25;17.60;99.90
14370;DHT22;7268;50.792;0.252;2023-09-12T01:59:52;17.50;99.90
14370;DHT22;7268;50.792;0.252;2023-09-12T02:02:19;17.50;99.90
14370;DHT22;7268;50.792;0.252;2023-09-12T02:05:16;17.60;99.90
14370;DHT22;7268;50.792;0.252;2023-09-12T02:07:46;17.60;99.90
14370;DHT22;7268;50.792;0.252;2023-09-12T02:10:13;17.60;99.90
14370;DHT22;7268;50.792;0.252;2023-09-12T02:12:41;17.60;99.90
14370;DHT22;7268;50.792;0.252;2023-09-12T02:15:08;17.70;99.90
14370;DHT22;7268;50.792;0.252;2023-09-12T02:17:35;17.70;99.90
14370;DHT22;7268;50.792;0.252;2023-09-12T02:20:02;17.70;99.90
14370;DHT22;7268;50.792;0.252;2023-09-12T02:22:32;17.60;99.90
14370;DHT22;7268;50.792;0.252;2023-09-12T02:24:59;17.60;99.90
14370;DHT22;7268;50.792;0.252;2023-09-12T02:27:25;17.60;99.90
14370;DHT22;7268;50.792;0.252;2023-09-12T02:29:52;17.60;99.90
14370;DHT22;7268;50.792;0.252;2023-09-12T02:32:27;17.60;99.90
14370;DHT22;7268;50.792;0.252;2023-09-12T02:34:54;17.60;99.90
14370;DHT22;7268;50.792;0.252;2023-09-12T02:37:23;17.60;99.90
14370;DHT22;7268;50.792;0.252;2023-09-12T02:39:50;17.60;99.90
14370;DHT22;7268;50.792;0.252;2023-09-12T02:42:17;17.60;99.90
14370;DHT22;7268;50.792;0.252;2023-09-12T02:44:43;17.60;99.90
14370;DHT22;7268;50.792;0.252;2023-09-12T02:47:10;17.60;99.90
14370;DHT22;7268;50.792;0.252;2023-09-12T02:49:37;17.60;99.90
14370;DHT22;7268;50.792;0.252;2023-09-12T02:52:04;17.60;99.90
14370;DHT22;7268;50.792;0.252;2023-09-12T02:54:31;17.60;99.90
14370;DHT22;7268;50.792;0.252;2023-09-12T02:56:58;17.60;99.90
14370;DHT22;7268;50.792;0.252;2023-09-12T02:59:25;17.60;99.90
14370;DHT22;7268;50.792;0.252;2023-09-12T03:01:52;17.70;99.90
14370;DHT22;7268;50.792;0.252;2023-09-12T03:04:18;17.70;99.90
14370;DHT22;7268;50.792;0.252;2023-09-12T03:06:45;17.70;99.90
14370;DHT22;7268;50.792;0.252;2023-09-12T03:09:13;17.70;99.90
14370;DHT22;7268;50.792;0.252;2023-09-12T03:11:40;17.80;99.90
14370;DHT22;7268;50.792;0.252;2023-09-12T03:14:07;17.80;99.90
14370;DHT22;7268;50.792;0.252;2023-09-12T03:16:34;17.80;99.90
14370;DHT22;7268;50.792;0.252;2023-09-12T03:19:03;17.80;99.90
14370;DHT22;7268;50.792;0.252;2023-09-12T03:21:30;17.80;99.90
14370;DHT22;7268;50.792;0.252;2023-09-12T03:23:57;17.80;99.90
14370;DHT22;7268;50.792;0.252;2023-09-12T03:26:24;17.80;99.90
14370;DHT22;7268;50.792;0.252;2023-09-12T03:28:51;17.80;99.90
14370;DHT22;7268;50.792;0.252;2023-09-12T03:31:18;17.80;99.90
14370;DHT22;7268;50.792;0.252;2023-09-12T03:33:45;17.80;99.90
14370;DHT22;7268;50.792;0.252;2023-09-12T03:36:17;17.80;99.90
14370;DHT22;7268;50.792;0.252;2023-09-12T03:38:46;17.80;99.90
14370;DHT22;7268;50.792;0.252;2023-09-12T03:41:13;17.80;99.90
14370;DHT22;7268;50.792;0.252;2023-09-12T03:43:40;17.80;99.90
14370;DHT22;7268;50.792;0.252;2023-09-12T03:46:07;17.70;99.90
14370;DHT22;7268;50.792;0.252;2023-09-12T03:48:35;17.80;99.90
14370;DHT22;7268;50.792;0.252;2023-09-12T03:51:03;17.80;99.90
14370;DHT22;7268;50.792;0.252;2023-09-12T03:53:31;17.70;99.90
14370;DHT22;7268;50.792;0.252;2023-09-12T03:55:58;17.70;99.90
14370;DHT22;7268;50.792;0.252;2023-09-12T03:58:26;17.70;99.90
14370;DHT22;7268;50.792;0.252;2023-09-12T04:00:53;17.70;99.90
14370;DHT22;7268;50.792;0.252;2023-09-12T04:03:20;17.70;99.90
14370;DHT22;7268;50.792;0.252;2023-09-12T04:05:48;17.70;99.90
14370;DHT22;7268;50.792;0.252;2023-09-12T04:08:15;17.80;99.90
14370;DHT22;7268;50.792;0.252;2023-09-12T04:10:42;17.80;99.90
14370;DHT22;7268;50.792;0.252;2023-09-12T04:13:09;17.80;99.90
14370;DHT22;7268;50.792;0.252;2023-09-12T04:15:36;17.80;99.90
14370;DHT22;7268;50.792;0.252;2023-09-12T04:18:04;17.80;99.90
14370;DHT22;7268;50.792;0.252;2023-09-12T04:20:31;17.70;99.90
14370;DHT22;7268;50.792;0.252;2023-09-12T04:23:00;17.70;99.90
14370;DHT22;7268;50.792;0.252;2023-09-12T04:25:28;17.70;99.90
14370;DHT22;7268;50.792;0.252;2023-09-12T04:27:55;17.70;99.90
14370;DHT22;7268;50.792;0.252;2023-09-12T04:30:22;17.60;99.90
14370;DHT22;7268;50.792;0.252;2023-09-12T04:32:49;17.60;99.90
14370;DHT22;7268;50.792;0.252;2023-09-12T04:35:16;17.60;99.90
14370;DHT22;7268;50.792;0.252;2023-09-12T04:37:44;17.60;99.90
14370;DHT22;7268;50.792;0.252;2023-09-12T04:40:11;17.60;99.90
14370;DHT22;7268;50.792;0.252;2023-09-12T04:42:38;17.60;99.90
14370;DHT22;7268;50.792;0.252;2023-09-12T04:45:05;17.60;99.90
14370;DHT22;7268;50.792;0.252;2023-09-12T04:47:32;17.50;99.90
14370;DHT22;7268;50.792;0.252;2023-09-12T04:49:59;17.50;99.90
14370;DHT22;7268;50.792;0.252;2023-09-12T04:52:27;17.60;99.90
14370;DHT22;7268;50.792;0.252;2023-09-12T04:54:56;17.50;99.90
14370;DHT22;7268;50.792;0.252;2023-09-12T04:57:23;17.50;99.90
14370;DHT22;7268;50.792;0.252;2023-09-12T04:59:51;17.50;99.90
14370;DHT22;7268;50.792;0.252;2023-09-12T05:02:18;17.50;99.90
14370;DHT22;7268;50.792;0.252;2023-09-12T05:04:45;17.50;99.90
14370;DHT22;7268;50.792;0.252;2023-09-12T05:07:12;17.50;99.90
14370;DHT22;7268;50.792;0.252;2023-09-12T05:09:39;17.50;99.90
14370;DHT22;7268;50.792;0.252;2023-09-12T05:12:06;17.50;99.90
14370;DHT22;7268;50.792;0.252;2023-09-12T05:14:34;17.50;99.90
14370;DHT22;7268;50.792;0.252;2023-09-12T05:17:00;17.40;99.90
14370;DHT22;7268;50.792;0.252;2023-09-12T05:19:30;17.30;99.90
14370;DHT22;7268;50.792;0.252;2023-09-12T05:21:57;17.20;99.90
14370;DHT22;7268;50.792;0.252;2023-09-12T05:24:24;17.30;99.90
14370;DHT22;7268;50.792;0.252;2023-09-12T05:26:51;17.30;99.90
14370;DHT22;7268;50.792;0.252;2023-09-12T05:29:17;17.30;99.90
14370;DHT22;7268;50.792;0.252;2023-09-12T05:31:44;17.30;99.90
14370;DHT22;7268;50.792;0.252;2023-09-12T05:34:11;17.30;99.90
14370;DHT22;7268;50.792;0.252;2023-09-12T05:36:38;17.30;99.90
14370;DHT22;7268;50.792;0.252;2023-09-12T05:39:05;17.30;99.90
14370;DHT22;7268;50.792;0.252;2023-09-12T05:41:33;17.30;99.90
14370;DHT22;7268;50.792;0.252;2023-09-12T05:43:59;17.40;99.90
14370;DHT22;7268;50.792;0.252;2023-09-12T05:46:26;17.40;99.90
14370;DHT22;7268;50.792;0.252;2023-09-12T05:48:53;17.50;99.90
14370;DHT22;7268;50.792;0.252;2023-09-12T05:51:20;17.60;99.90
14370;DHT22;7268;50.792;0.252;2023-09-12T05:53:47;17.70;99.90
14370;DHT22;7268;50.792;0.252;2023-09-12T05:56:14;17.80;99.90
14370;DHT22;7268;50.792;0.252;2023-09-12T05:58:41;17.90;99.90
14370;DHT22;7268;50.792;0.252;2023-09-12T06:01:09;17.90;99.90
14370;DHT22;7268;50.792;0.252;2023-09-12T06:03:37;18.00;99.90
14370;DHT22;7268;50.792;0.252;2023-09-12T06:06:05;18.00;99.90
14370;DHT22;7268;50.792;0.252;2023-09-12T06:08:32;18.10;99.90
14370;DHT22;7268;50.792;0.252;2023-09-12T06:10:58;18.10;99.90
14370;DHT22;7268;50.792;0.252;2023-09-12T06:13:25;18.20;99.90
14370;DHT22;7268;50.792;0.252;2023-09-12T06:15:52;18.20;99.90
14370;DHT22;7268;50.792;0.252;2023-09-12T06:18:19;18.20;99.90
14370;DHT22;7268;50.792;0.252;2023-09-12T06:20:47;18.20;99.90
14370;DHT22;7268;50.792;0.252;2023-09-12T06:23:14;18.20;99.90
14370;DHT22;7268;50.792;0.252;2023-09-12T06:25:41;18.20;99.90
14370;DHT22;7268;50.792;0.252;2023-09-12T06:28:09;18.30;99.90
14370;DHT22;7268;50.792;0.252;2023-09-12T06:30:36;18.30;99.90
14370;DHT22;7268;50.792;0.252;2023-09-12T06:33:04;18.40;99.90
14370;DHT22;7268;50.792;0.252;2023-09-12T06:35:38;18.40;99.90
14370;DHT22;7268;50.792;0.252;2023-09-12T06:38:08;18.30;99.90
14370;DHT22;7268;50.792;0.252;2023-09-12T06:40:35;18.30;99.90
14370;DHT22;7268;50.792;0.252;2023-09-12T06:43:02;18.30;99.90
14370;DHT22;7268;50.792;0.252;2023-09-12T06:45:29;18.30;99.90
14370;DHT22;7268;50.792;0.252;2023-09-12T06:47:59;18.30;99.90
14370;DHT22;7268;50.792;0.252;2023-09-12T06:50:26;18.40;99.90
14370;DHT22;7268;50.792;0.252;2023-09-12T06:52:58;18.30;99.90
14370;DHT22;7268;50.792;0.252;2023-09-12T06:55:25;18.40;99.90
14370;DHT22;7268;50.792;0.252;2023-09-12T06:57:52;18.50;99.90
14370;DHT22;7268;50.792;0.252;2023-09-12T07:00:19;18.50;99.90
14370;DHT22;7268;50.792;0.252;2023-09-12T07:02:47;18.60;99.90
14370;DHT22;7268;50.792;0.252;2023-09-12T07:05:14;18.60;99.90
14370;DHT22;7268;50.792;0.252;2023-09-12T07:07:41;18.70;99.90
14370;DHT22;7268;50.792;0.252;2023-09-12T07:10:08;18.90;99.90
14370;DHT22;7268;50.792;0.252;2023-09-12T07:12:50;18.90;99.90
14370;DHT22;7268;50.792;0.252;2023-09-12T07:15:17;18.90;99.90
14370;DHT22;7268;50.792;0.252;2023-09-12T07:17:44;19.00;99.90
14370;DHT22;7268;50.792;0.252;2023-09-12T07:20:11;19.00;99.90
14370;DHT22;7268;50.792;0.252;2023-09-12T07:22:39;19.00;99.90
14370;DHT22;7268;50.792;0.252;2023-09-12T07:25:07;19.00;99.90
14370;DHT22;7268;50.792;0.252;2023-09-12T07:27:35;19.00;99.90
14370;DHT22;7268;50.792;0.252;2023-09-12T07:30:05;19.10;99.90
14370;DHT22;7268;50.792;0.252;2023-09-12T07:32:33;19.20;99.90
14370;DHT22;7268;50.792;0.252;2023-09-12T07:35:00;19.40;99.90
14370;DHT22;7268;50.792;0.252;2023-09-12T07:37:27;19.60;99.90
14370;DHT22;7268;50.792;0.252;2023-09-12T07:39:54;19.80;99.90
14370;DHT22;7268;50.792;0.252;2023-09-12T07:42:22;20.00;99.90
14370;DHT22;7268;50.792;0.252;2023-09-12T07:44:49;20.30;99.90
14370;DHT22;7268;50.792;0.252;2023-09-12T07:47:17;20.50;99.90
14370;DHT22;7268;50.792;0.252;2023-09-12T07:49:44;20.70;99.90
14370;DHT22;7268;50.792;0.252;2023-09-12T07:52:11;20.90;99.90
14370;DHT22;7268;50.792;0.252;2023-09-12T07:54:37;21.00;99.90
14370;DHT22;7268;50.792;0.252;2023-09-12T07:57:04;21.30;99.90
14370;DHT22;7268;50.792;0.252;2023-09-12T07:59:31;21.50;99.90
14370;DHT22;7268;50.792;0.252;2023-09-12T08:01:58;21.70;99.90
14370;DHT22;7268;50.792;0.252;2023-09-12T08:04:25;22.10;99.90
14370;DHT22;7268;50.792;0.252;2023-09-12T08:06:52;22.50;99.90
14370;DHT22;7268;50.792;0.252;2023-09-12T08:09:46;23.70;99.10
14370;DHT22;7268;50.792;0.252;2023-09-12T08:12:11;24.40;95.90
14370;DHT22;7268;50.792;0.252;2023-09-12T08:14:38;24.60;95.30
14370;DHT22;7268;50.792;0.252;2023-09-12T08:17:05;24.60;95.50
14370;DHT22;7268;50.792;0.252;2023-09-12T08:19:33;24.70;95.10
14370;DHT22;7268;50.792;0.252;2023-09-12T08:22:00;24.10;94.90
14370;DHT22;7268;50.792;0.252;2023-09-12T08:24:27;23.90;95.80
14370;DHT22;7268;50.792;0.252;2023-09-12T08:26:53;23.70;96.50
14370;DHT22;7268;50.792;0.252;2023-09-12T08:29:21;23.50;96.50
14370;DHT22;7268;50.792;0.252;2023-09-12T08:31:48;24.60;95.80
14370;DHT22;7268;50.792;0.252;2023-09-12T08:34:15;25.60;93.20
14370;DHT22;7268;50.792;0.252;2023-09-12T08:36:41;25.50;91.70
14370;DHT22;7268;50.792;0.252;2023-09-12T08:39:13;25.00;93.20
14370;DHT22;7268;50.792;0.252;2023-09-12T08:41:40;24.30;94.00
14370;DHT22;7268;50.792;0.252;2023-09-12T08:44:08;23.60;95.00
14370;DHT22;7268;50.792;0.252;2023-09-12T08:46:35;23.00;96.30
14370;DHT22;7268;50.792;0.252;2023-09-12T08:49:05;22.60;97.20
14370;DHT22;7268;50.792;0.252;2023-09-12T08:51:32;22.30;98.10
14370;DHT22;7268;50.792;0.252;2023-09-12T08:54:00;22.00;98.60
14370;DHT22;7268;50.792;0.252;2023-09-12T08:56:28;21.60;99.30
14370;DHT22;7268;50.792;0.252;2023-09-12T08:58:55;21.40;99.90
14370;DHT22;7268;50.792;0.252;2023-09-12T09:01:23;21.40;99.90
14370;DHT22;7268;50.792;0.252;2023-09-12T09:03:50;21.50;99.90
14370;DHT22;7268;50.792;0.252;2023-09-12T09:06:17;21.60;99.90
14370;DHT22;7268;50.792;0.252;2023-09-12T09:08:46;21.80;99.90
14370;DHT22;7268;50.792;0.252;2023-09-12T09:11:14;22.10;99.60
14370;DHT22;7268;50.792;0.252;2023-09-12T09:13:41;22.40;98.60
14370;DHT22;7268;50.792;0.252;2023-09-12T09:16:17;22.40;98.00
14370;DHT22;7268;50.792;0.252;2023-09-12T09:19:04;22.30;98.00
14370;DHT22;7268;50.792;0.252;2023-09-12T09:21:37;22.30;98.00
14370;DHT22;7268;50.792;0.252;2023-09-12T09:24:08;22.30;98.70
14370;DHT22;7268;50.792;0.252;2023-09-12T09:26:50;22.30;98.10
14370;DHT22;7268;50.792;0.252;2023-09-12T09:29:21;22.20;98.10
14370;DHT22;7268;50.792;0.252;2023-09-12T09:31:50;22.00;98.00
14370;DHT22;7268;50.792;0.252;2023-09-12T09:34:21;21.90;98.80
14370;DHT22;7268;50.792;0.252;2023-09-12T09:36:52;21.90;99.20
14370;DHT22;7268;50.792;0.252;2023-09-12T09:39:22;22.00;99.50
14370;DHT22;7268;50.792;0.252;2023-09-12T09:41:51;21.90;99.10
14370;DHT22;7268;50.792;0.252;2023-09-12T09:44:18;21.70;99.40
14370;DHT22;7268;50.792;0.252;2023-09-12T09:46:50;21.70;99.70
14370;DHT22;7268;50.792;0.252;2023-09-12T09:49:20;21.50;99.70
14370;DHT22;7268;50.792;0.252;2023-09-12T09:51:47;21.40;99.90
14370;DHT22;7268;50.792;0.252;2023-09-12T09:54:14;21.60;99.90
14370;DHT22;7268;50.792;0.252;2023-09-12T09:56:56;21.50;99.90
14370;DHT22;7268;50.792;0.252;2023-09-12T09:59:27;21.60;99.90
14370;DHT22;7268;50.792;0.252;2023-09-12T10:01:58;21.50;99.90
14370;DHT22;7268;50.792;0.252;2023-09-12T10:04:27;21.50;99.90
14370;DHT22;7268;50.792;0.252;2023-09-12T10:06:58;21.40;99.90
14370;DHT22;7268;50.792;0.252;2023-09-12T10:09:27;21.40;99.90
14370;DHT22;7268;50.792;0.252;2023-09-12T10:11:55;21.30;99.90
14370;DHT22;7268;50.792;0.252;2023-09-12T10:14:27;21.20;99.90
14370;DHT22;7268;50.792;0.252;2023-09-12T10:17:00;21.30;99.90
14370;DHT22;7268;50.792;0.252;2023-09-12T10:19:38;21.50;99.90
14370;DHT22;7268;50.792;0.252;2023-09-12T10:22:17;21.70;99.90
14370;DHT22;7268;50.792;0.252;2023-09-12T10:24:49;21.70;99.90
14370;DHT22;7268;50.792;0.252;2023-09-12T10:27:18;21.80;99.60
14370;DHT22;7268;50.792;0.252;2023-09-12T10:29:45;22.50;99.90
14370;DHT22;7268;50.792;0.252;2023-09-12T10:32:14;23.80;97.70
14370;DHT22;7268;50.792;0.252;2023-09-12T10:34:44;24.80;95.40
14370;DHT22;7268;50.792;0.252;2023-09-12T10:37:17;25.60;93.90
14370;DHT22;7268;50.792;0.252;2023-09-12T10:39:46;26.70;92.40
14370;DHT22;7268;50.792;0.252;2023-09-12T10:42:16;27.20;89.50
14370;DHT22;7268;50.792;0.252;2023-09-12T10:44:45;27.60;88.30
14370;DHT22;7268;50.792;0.252;2023-09-12T10:47:14;27.80;87.80
14370;DHT22;7268;50.792;0.252;2023-09-12T10:49:43;28.10;84.30
14370;DHT22;7268;50.792;0.252;2023-09-12T10:52:23;28.00;85.40
14370;DHT22;7268;50.792;0.252;2023-09-12T10:54:50;28.00;84.80
14370;DHT22;7268;50.792;0.252;2023-09-12T10:57:17;28.20;82.90
14370;DHT22;7268;50.792;0.252;2023-09-12T11:02:38;29.60;79.50
14370;DHT22;7268;50.792;0.252;2023-09-12T11:05:07;30.30;76.00
14370;DHT22;7268;50.792;0.252;2023-09-12T11:07:58;30.80;75.70
14370;DHT22;7268;50.792;0.252;2023-09-12T11:10:26;31.50;72.00
14370;DHT22;7268;50.792;0.252;2023-09-12T11:12:55;30.60;73.20
14370;DHT22;7268;50.792;0.252;2023-09-12T11:15:25;29.10;77.20
14370;DHT22;7268;50.792;0.252;2023-09-12T11:20:52;26.40;89.30
14370;DHT22;7268;50.792;0.252;2023-09-12T11:23:20;25.70;91.30
14370;DHT22;7268;50.792;0.252;2023-09-12T11:25:47;26.60;91.30
14370;DHT22;7268;50.792;0.252;2023-09-12T11:28:15;27.80;88.90
14370;DHT22;7268;50.792;0.252;2023-09-12T11:30:56;29.00;83.50
14370;DHT22;7268;50.792;0.252;2023-09-12T11:33:25;29.20;81.00
14370;DHT22;7268;50.792;0.252;2023-09-12T11:35:54;29.30;80.20
14370;DHT22;7268;50.792;0.252;2023-09-12T11:38:31;29.40;81.20
14370;DHT22;7268;50.792;0.252;2023-09-12T11:40:58;29.70;78.70
14370;DHT22;7268;50.792;0.252;2023-09-12T11:43:27;29.70;79.20
14370;DHT22;7268;50.792;0.252;2023-09-12T11:45:55;30.30;77.60
14370;DHT22;7268;50.792;0.252;2023-09-12T11:48:23;29.60;78.90
14370;DHT22;7268;50.792;0.252;2023-09-12T11:50:55;27.40;84.10
14370;DHT22;7268;50.792;0.252;2023-09-12T11:53:24;27.00;87.30
14370;DHT22;7268;50.792;0.252;2023-09-12T11:55:58;26.70;89.80
14370;DHT22;7268;50.792;0.252;2023-09-12T11:58:26;26.40;89.90
14370;DHT22;7268;50.792;0.252;2023-09-12T12:00:56;26.30;90.00
14370;DHT22;7268;50.792;0.252;2023-09-12T12:03:25;26.10;90.10
14370;DHT22;7268;50.792;0.252;2023-09-12T12:05:54;25.90;90.90
14370;DHT22;7268;50.792;0.252;2023-09-12T12:08:22;26.10;90.30
14370;DHT22;7268;50.792;0.252;2023-09-12T12:10:58;26.70;90.00
14370;DHT22;7268;50.792;0.252;2023-09-12T12:13:25;27.20;86.30
14370;DHT22;7268;50.792;0.252;2023-09-12T12:15:54;27.40;85.20
14370;DHT22;7268;50.792;0.252;2023-09-12T12:18:21;26.90;84.80
14370;DHT22;7268;50.792;0.252;2023-09-12T12:20:48;26.50;87.20
14370;DHT22;7268;50.792;0.252;2023-09-12T12:23:15;26.20;89.60
14370;DHT22;7268;50.792;0.252;2023-09-12T12:25:42;25.90;90.80
14370;DHT22;7268;50.792;0.252;2023-09-12T12:28:09;25.30;91.00
14370;DHT22;7268;50.792;0.252;2023-09-12T12:30:36;24.80;91.90
14370;DHT22;7268;50.792;0.252;2023-09-12T12:33:08;24.30;92.90
14370;DHT22;7268;50.792;0.252;2023-09-12T12:36:04;24.30;93.10
14370;DHT22;7268;50.792;0.252;2023-09-12T12:38:34;24.20;93.40
14370;DHT22;7268;50.792;0.252;2023-09-12T12:41:05;24.20;93.40
14370;DHT22;7268;50.792;0.252;2023-09-12T12:43:32;24.10;92.40
14370;DHT22;7268;50.792;0.252;2023-09-12T12:45:59;24.20;92.70
14370;DHT22;7268;50.792;0.252;2023-09-12T12:48:32;24.30;92.40
14370;DHT22;7268;50.792;0.252;2023-09-12T12:51:22;24.20;92.70
14370;DHT22;7268;50.792;0.252;2023-09-12T12:53:54;24.60;93.70
14370;DHT22;7268;50.792;0.252;2023-09-12T12:56:28;25.10;92.40
14370;DHT22;7268;50.792;0.252;2023-09-12T12:58:59;25.10;92.90
14370;DHT22;7268;50.792;0.252;2023-09-12T13:01:30;24.90;92.70
14370;DHT22;7268;50.792;0.252;2023-09-12T13:03:57;24.90;92.40
14370;DHT22;7268;50.792;0.252;2023-09-12T13:06:24;25.00;92.20
14370;DHT22;7268;50.792;0.252;2023-09-12T13:08:53;24.90;91.50
14370;DHT22;7268;50.792;0.252;2023-09-12T13:11:20;24.60;91.90
14370;DHT22;7268;50.792;0.252;2023-09-12T13:13:47;24.60;93.20
14370;DHT22;7268;50.792;0.252;2023-09-12T13:16:16;24.60;92.80
14370;DHT22;7268;50.792;0.252;2023-09-12T13:18:43;24.40;94.00
14370;DHT22;7268;50.792;0.252;2023-09-12T13:21:10;24.30;93.60
14370;DHT22;7268;50.792;0.252;2023-09-12T13:23:38;24.00;93.60
14370;DHT22;7268;50.792;0.252;2023-09-12T13:26:07;23.90;94.10
14370;DHT22;7268;50.792;0.252;2023-09-12T13:28:35;23.70;94.70
14370;DHT22;7268;50.792;0.252;2023-09-12T13:31:02;23.60;94.00
14370;DHT22;7268;50.792;0.252;2023-09-12T13:33:30;23.70;94.50
14370;DHT22;7268;50.792;0.252;2023-09-12T13:35:57;23.80;94.90
14370;DHT22;7268;50.792;0.252;2023-09-12T13:38:23;23.80;94.50
14370;DHT22;7268;50.792;0.252;2023-09-12T13:40:51;23.50;95.70
14370;DHT22;7268;50.792;0.252;2023-09-12T13:43:35;23.40;95.60
14370;DHT22;7268;50.792;0.252;2023-09-12T13:46:02;23.40;95.50
14370;DHT22;7268;50.792;0.252;2023-09-12T13:48:29;23.30;95.40
14370;DHT22;7268;50.792;0.252;2023-09-12T13:50:56;23.30;95.80
14370;DHT22;7268;50.792;0.252;2023-09-12T13:53:23;23.20;95.70
14370;DHT22;7268;50.792;0.252;2023-09-12T13:55:50;23.20;95.70
14370;DHT22;7268;50.792;0.252;2023-09-12T13:58:36;23.20;95.80
14370;DHT22;7268;50.792;0.252;2023-09-12T14:01:12;23.50;96.00
14370;DHT22;7268;50.792;0.252;2023-09-12T14:03:53;23.60;94.40
14370;DHT22;7268;50.792;0.252;2023-09-12T14:06:21;23.70;95.60
14370;DHT22;7268;50.792;0.252;2023-09-12T14:08:49;23.50;95.20
14370;DHT22;7268;50.792;0.252;2023-09-12T14:11:16;23.60;96.10
14370;DHT22;7268;50.792;0.252;2023-09-12T14:13:57;23.70;94.70
14370;DHT22;7268;50.792;0.252;2023-09-12T14:16:41;23.80;94.80
14370;DHT22;7268;50.792;0.252;2023-09-12T14:19:14;23.70;94.10
14370;DHT22;7268;50.792;0.252;2023-09-12T14:21:42;23.50;95.20
14370;DHT22;7268;50.792;0.252;2023-09-12T14:24:12;23.40;94.80
14370;DHT22;7268;50.792;0.252;2023-09-12T14:26:39;23.40;95.40
14370;DHT22;7268;50.792;0.252;2023-09-12T14:29:07;23.30;95.40
14370;DHT22;7268;50.792;0.252;2023-09-12T14:31:35;23.30;95.70
14370;DHT22;7268;50.792;0.252;2023-09-12T14:34:04;23.10;95.40
14370;DHT22;7268;50.792;0.252;2023-09-12T14:36:32;23.20;96.30
14370;DHT22;7268;50.792;0.252;2023-09-12T14:38:59;23.20;95.90
14370;DHT22;7268;50.792;0.252;2023-09-12T14:41:26;23.10;95.90
14370;DHT22;7268;50.792;0.252;2023-09-12T14:43:53;23.00;96.10
14370;DHT22;7268;50.792;0.252;2023-09-12T14:46:20;23.00;96.10
14370;DHT22;7268;50.792;0.252;2023-09-12T14:48:47;22.80;96.50
14370;DHT22;7268;50.792;0.252;2023-09-12T14:51:26;22.60;96.50
14370;DHT22;7268;50.792;0.252;2023-09-12T14:54:00;22.50;97.30
14370;DHT22;7268;50.792;0.252;2023-09-12T14:56:27;22.40;97.60
14370;DHT22;7268;50.792;0.252;2023-09-12T14:58:54;22.50;97.70
14370;DHT22;7268;50.792;0.252;2023-09-12T15:01:21;22.60;97.80
14370;DHT22;7268;50.792;0.252;2023-09-12T15:03:48;22.60;96.80
14370;DHT22;7268;50.792;0.252;2023-09-12T15:06:15;22.50;97.00
14370;DHT22;7268;50.792;0.252;2023-09-12T15:08:42;22.40;97.20
14370;DHT22;7268;50.792;0.252;2023-09-12T15:11:09;22.40;97.10
14370;DHT22;7268;50.792;0.252;2023-09-12T15:13:36;22.40;97.40
14370;DHT22;7268;50.792;0.252;2023-09-12T15:16:06;22.40;97.20
14370;DHT22;7268;50.792;0.252;2023-09-12T15:18:33;22.50;97.40
14370;DHT22;7268;50.792;0.252;2023-09-12T15:21:00;22.50;96.90
14370;DHT22;7268;50.792;0.252;2023-09-12T15:23:27;22.50;97.10
14370;DHT22;7268;50.792;0.252;2023-09-12T15:25:55;22.50;96.50
14370;DHT22;7268;50.792;0.252;2023-09-12T15:28:22;22.50;96.70
14370;DHT22;7268;50.792;0.252;2023-09-12T15:30:48;22.40;96.90
14370;DHT22;7268;50.792;0.252;2023-09-12T15:33:15;22.20;97.20
14370;DHT22;7268;50.792;0.252;2023-09-12T15:35:42;22.20;97.20
14370;DHT22;7268;50.792;0.252;2023-09-12T15:38:09;22.00;97.30
14370;DHT22;7268;50.792;0.252;2023-09-12T15:40:36;22.00;97.90
14370;DHT22;7268;50.792;0.252;2023-09-12T15:43:03;21.90;98.00
14370;DHT22;7268;50.792;0.252;2023-09-12T15:45:44;21.80;97.90
14370;DHT22;7268;50.792;0.252;2023-09-12T15:48:17;21.60;98.00
14370;DHT22;7268;50.792;0.252;2023-09-12T15:50:44;21.60;98.60
14370;DHT22;7268;50.792;0.252;2023-09-12T15:53:11;21.60;98.60
14370;DHT22;7268;50.792;0.252;2023-09-12T15:55:37;21.60;98.90
14370;DHT22;7268;50.792;0.252;2023-09-12T15:58:05;21.60;98.80
14370;DHT22;7268;50.792;0.252;2023-09-12T16:00:31;21.40;98.80
14370;DHT22;7268;50.792;0.252;2023-09-12T16:02:59;21.40;99.30